DTKADTTB

Guest
Details From DTKA - TABARKA 7 NOVEMBRE
To DTTB - SIDI AHMED AIR BASE
Flight Number -
Tags generated
Created
Modified
Stats Distance 47 nm / 87 km
Max Altitude 100 ft / 30 m
Waypoints 3
Social Downloads 0
Likes 0
Share VATSIM

Download

Looking for another format? Having issues loading an existing format? Contact us
Advertisement - Login to hide

Notes

Basic altitude profile: - Ascent Rate: 2500ft/min - Ascent Speed: 250kts - Cruise Altitude: 35000ft - Cruise Speed: 420kts - Descent Rate: 1500ft/min - Descent Speed: 250kts Options: - Use NATs: yes - Use PACOTS: yes - Use low airways: yes - Use high airways: yes

Route

DTKA TBK DTTB

ID Type Via Altitude Latitude Longitude Leg Dist Tot Dist Heading (true) Name
O DTKA APT - 0 ft / 0 m 36.98017˚ 8.87512˚ - 0 nm - TABARKA 7 NOVEMBRE
TBK VOR - 100 ft / 30 m 36.97817˚ 8.88358˚ 0 nm 0 nm 106° / 106° TABARKA VOR-DME
O DTTB APT - 0 ft / 0 m 37.24472˚ 9.79276˚ 46 nm 46 nm 70° / 70° SIDI AHMED AIR BASE

Altitude Profile

Advertisement - Login to hide

DTKA

Details ICAO DTKA (TBJ)
Name TABARKA 7 NOVEMBRE
Region Tunisia
Timezone Africa/Tunis (UTC+1.0)
Stats Elevation 230 ft / 70 m (AMSL)
Location 36.980165° 8.875125°
Runways 1
Magnetic Variation 2.173° E

METAR

DTKA 131900Z 23007KT 190V280 8000 SCT020 SCT030 13/10 Q1026 NOSIG

Decode

TAF

Not found

Departure Runways

ID Width Length Bearing (true) Bearing (mag) Surface Threshold Offset Overrun Length
09 148 ft / 45 m 9,379 ft / 2,859 m 93.06° 90.89° Asphalt 0 ft / 0 m 230 ft / 70 m
27 148 ft / 45 m 9,379 ft / 2,859 m 273.08° 270.91° Asphalt 0 ft / 0 m 0 ft / 0 m

DTTB

Details ICAO DTTB
Name SIDI AHMED AIR BASE
Region Tunisia
Timezone Africa/Tunis (UTC+1.0)
Stats Elevation 20 ft / 6 m (AMSL)
Location 37.244723° 9.792761°
Runways 2
Magnetic Variation 2.347° E

METAR

DTTB 131900Z 24006KT 8000 SCT016 SCT030 12/10 Q1025

Decode

TAF

Not found

Destination Runways

ID Width Length Bearing (true) Bearing (mag) Surface Threshold Offset Overrun Length
08 166 ft / 51 m 9,825 ft / 2,995 m 81.89° 79.54° Asphalt 0 ft / 0 m 1,145 ft / 349 m
11 164 ft / 50 m 3,969 ft / 1,210 m 110.85° 108.50° Concrete 0 ft / 0 m 0 ft / 0 m
26 166 ft / 51 m 9,825 ft / 2,995 m 261.91° 259.56° Asphalt 0 ft / 0 m 0 ft / 0 m
29 164 ft / 50 m 3,969 ft / 1,210 m 290.86° 288.51° Concrete 0 ft / 0 m 0 ft / 0 m